Time;durP1;ratioP1;P1;durP2;ratioP2;P2;SDS_P1;SDS_P2;PMS_P1;PMS_P2;Temp;Humidity;BMP_temperature;BMP_pressure;BME280_temperature;BME280_humidity;BME280_pressure;Samples;Min_cycle;Max_cycle;Signal;HPM_P1;HPM_P2
2022/06/11 00:00:36;;;;;;;0.00;0.00;;;;;;;;;;5030295;28;20017;-59
2022/06/11 00:03:02;;;;;;;0.00;0.00;;;;;;;;;;5030674;28;20021;-58
2022/06/11 00:05:27;;;;;;;0.28;0.28;;;;;;;;;;5033647;28;20029;-58
2022/06/11 00:07:52;;;;;;;0.00;0.00;;;;;;;;;;5034188;28;20363;-59
2022/06/11 00:10:18;;;;;;;0.00;0.00;;;;;;;;;;5032498;28;20449;-59
2022/06/11 00:12:43;;;;;;;0.00;0.00;;;;;;;;;;5032405;28;20079;-59
2022/06/11 00:15:09;;;;;;;0.00;0.00;;;;;;;;;;5032551;28;20029;-60
2022/06/11 00:17:35;;;;;;;0.00;0.00;;;;;;;;;;5034551;28;20021;-60
2022/06/11 00:20:00;;;;;;;0.40;0.40;;;;;;;;;;5032612;28;20374;-59
2022/06/11 00:22:25;;;;;;;0.00;0.00;;;;;;;;;;5032570;28;20021;-60
2022/06/11 00:24:51;;;;;;;0.00;0.00;;;;;;;;;;5014634;28;20017;-59
2022/06/11 00:27:17;;;;;;;0.00;0.00;;;;;;;;;;5035593;28;20044;-58
2022/06/11 00:29:43;;;;;;;1.55;1.20;;;;;;;;;;5032226;28;20051;-59
2022/06/11 00:32:09;;;;;;;1.17;1.17;;;;;;;;;;5033544;28;20034;-59
2022/06/11 00:34:34;;;;;;;0.00;0.00;;;;;;;;;;5034238;28;20033;-58
2022/06/11 00:37:00;;;;;;;0.00;0.00;;;;;;;;;;5033689;28;20021;-59
2022/06/11 00:39:27;;;;;;;0.00;0.00;;;;;;;;;;5033212;28;20386;-58
2022/06/11 00:41:57;;;;;;;0.00;0.00;;;;;;;;;;5030872;28;20017;-57
2022/06/11 00:44:23;;;;;;;0.00;0.00;;;;;;;;;;5029953;28;20462;-58
2022/06/11 00:46:52;;;;;;;0.08;0.08;;;;;;;;;;5030855;28;20025;-59
2022/06/11 00:49:24;;;;;;;0.00;0.00;;;;;;;;;;5028263;28;20393;-59
2022/06/11 00:51:52;;;;;;;0.00;0.00;;;;;;;;;;5029782;28;20033;-60
2022/06/11 00:54:20;;;;;;;0.00;0.00;;;;;;;;;;5029591;28;20415;-59
2022/06/11 00:56:49;;;;;;;0.00;0.00;;;;;;;;;;5029933;28;20033;-60
2022/06/11 00:59:17;;;;;;;0.00;0.00;;;;;;;;;;5027450;28;20813;-59
2022/06/11 01:01:42;;;;;;;0.10;0.10;;;;;;;;;;5029391;28;20467;-59
2022/06/11 01:04:26;;;;;;;0.25;0.25;;;;;;;;;;5028615;28;20032;-58
2022/06/11 01:06:53;;;;;;;0.95;0.95;;;;;;;;;;5012123;28;20022;-59
2022/06/11 01:09:30;;;;;;;0.10;0.10;;;;;;;;;;5029028;28;20026;-59
2022/06/11 01:12:10;;;;;;;0.00;0.00;;;;;;;;;;5014603;28;20116;-59
2022/06/11 01:14:47;;;;;;;0.00;0.00;;;;;;;;;;5029426;28;20033;-59
2022/06/11 01:17:19;;;;;;;0.00;0.00;;;;;;;;;;5028739;28;20100;-59
2022/06/11 01:19:55;;;;;;;0.00;0.00;;;;;;;;;;5031793;28;20484;-59
2022/06/11 01:22:26;;;;;;;0.00;0.00;;;;;;;;;;5028896;28;20027;-59
2022/06/11 01:25:07;;;;;;;0.00;0.00;;;;;;;;;;5029996;28;20028;-59
2022/06/11 01:27:54;;;;;;;0.00;0.00;;;;;;;;;;5028516;28;20029;-58
2022/06/11 01:30:22;;;;;;;0.00;0.00;;;;;;;;;;5028483;28;20350;-57
2022/06/11 01:32:48;;;;;;;0.00;0.00;;;;;;;;;;5028472;28;20037;-60
2022/06/11 01:35:16;;;;;;;0.00;0.00;;;;;;;;;;5028479;28;20155;-60
2022/06/11 01:37:53;;;;;;;0.00;0.00;;;;;;;;;;5027779;28;20049;-59
2022/06/11 01:40:25;;;;;;;0.00;0.00;;;;;;;;;;5027570;28;20017;-58
2022/06/11 01:42:52;;;;;;;0.30;0.30;;;;;;;;;;5026441;28;20026;-59
2022/06/11 01:45:20;;;;;;;0.00;0.00;;;;;;;;;;5028855;28;20033;-58
2022/06/11 01:47:46;;;;;;;0.00;0.00;;;;;;;;;;5028512;28;20101;-58
2022/06/11 01:50:14;;;;;;;0.00;0.00;;;;;;;;;;5026912;28;20025;-58
2022/06/11 01:52:51;;;;;;;0.00;0.00;;;;;;;;;;5028850;28;20383;-58
2022/06/11 01:55:19;;;;;;;0.00;0.00;;;;;;;;;;5028168;28;20021;-58
2022/06/11 01:58:03;;;;;;;0.00;0.00;;;;;;;;;;5027277;28;20107;-58
2022/06/11 02:00:33;;;;;;;0.00;0.00;;;;;;;;;;5027719;28;20067;-59
2022/06/11 02:03:02;;;;;;;0.00;0.00;;;;;;;;;;5027690;28;20017;-57
2022/06/11 02:05:44;;;;;;;0.00;0.00;;;;;;;;;;5026951;28;20026;-58
2022/06/11 02:08:15;;;;;;;0.30;0.30;;;;;;;;;;5028118;28;20458;-59
2022/06/11 02:10:50;;;;;;;0.00;0.00;;;;;;;;;;5029105;28;20026;-53
2022/06/11 02:13:38;;;;;;;0.00;0.00;;;;;;;;;;5026863;28;20022;-58
2022/06/11 02:16:17;;;;;;;0.08;0.08;;;;;;;;;;4979610;28;20041;-58
2022/06/11 02:18:44;;;;;;;0.00;0.00;;;;;;;;;;5025291;28;20053;-58
2022/06/11 02:21:11;;;;;;;0.00;0.00;;;;;;;;;;5026760;28;20026;-58
2022/06/11 02:23:38;;;;;;;0.00;0.00;;;;;;;;;;5027201;28;20427;-58
2022/06/11 02:26:07;;;;;;;0.00;0.00;;;;;;;;;;5024423;28;20035;-57
2022/06/11 02:28:36;;;;;;;0.00;0.00;;;;;;;;;;5026657;28;20024;-57
2022/06/11 02:31:04;;;;;;;0.00;0.00;;;;;;;;;;5026409;28;20036;-57
2022/06/11 02:33:30;;;;;;;0.00;0.00;;;;;;;;;;5026988;28;20040;-58
2022/06/11 02:35:59;;;;;;;0.00;0.00;;;;;;;;;;5027797;28;20117;-58
2022/06/11 02:38:26;;;;;;;0.00;0.00;;;;;;;;;;5026656;28;20116;-58
2022/06/11 02:40:55;;;;;;;0.10;0.10;;;;;;;;;;5027534;28;20021;-57
2022/06/11 02:43:20;;;;;;;0.00;0.00;;;;;;;;;;5025479;28;20036;-58
2022/06/11 02:45:46;;;;;;;0.00;0.00;;;;;;;;;;5027548;28;20021;-60
2022/06/11 02:48:12;;;;;;;0.00;0.00;;;;;;;;;;5027022;28;20426;-59
2022/06/11 02:50:37;;;;;;;0.00;0.00;;;;;;;;;;5025915;28;20075;-59
2022/06/11 02:53:05;;;;;;;0.00;0.00;;;;;;;;;;5027120;28;20025;-58
2022/06/11 02:55:30;;;;;;;0.00;0.00;;;;;;;;;;5026027;28;20483;-58
2022/06/11 02:57:55;;;;;;;0.00;0.00;;;;;;;;;;5027003;28;20041;-58
2022/06/11 03:00:22;;;;;;;0.00;0.00;;;;;;;;;;5027295;28;20052;-58
2022/06/11 03:02:48;;;;;;;0.00;0.00;;;;;;;;;;5027570;28;20034;-58
2022/06/11 03:05:17;;;;;;;0.00;0.00;;;;;;;;;;5027088;28;20037;-57
2022/06/11 03:07:43;;;;;;;0.00;0.00;;;;;;;;;;5030221;28;20025;-59
2022/06/11 03:10:08;;;;;;;0.00;0.00;;;;;;;;;;5030887;28;20033;-59
2022/06/11 03:12:34;;;;;;;0.00;0.00;;;;;;;;;;5029317;28;20060;-59
2022/06/11 03:14:59;;;;;;;0.00;0.00;;;;;;;;;;5030567;28;20107;-57
2022/06/11 03:17:25;;;;;;;0.00;0.00;;;;;;;;;;5030501;28;20034;-58
2022/06/11 03:19:50;;;;;;;0.00;0.00;;;;;;;;;;5030946;28;20017;-58
2022/06/11 03:22:17;;;;;;;0.00;0.00;;;;;;;;;;5029028;28;20084;-58
2022/06/11 03:24:43;;;;;;;0.00;0.00;;;;;;;;;;5032407;28;20037;-59
2022/06/11 03:27:08;;;;;;;0.00;0.00;;;;;;;;;;5031103;28;20030;-58
2022/06/11 03:29:34;;;;;;;0.00;0.00;;;;;;;;;;5030504;28;20025;-59
2022/06/11 03:31:59;;;;;;;0.00;0.00;;;;;;;;;;5030235;28;20033;-58
2022/06/11 03:34:24;;;;;;;0.00;0.00;;;;;;;;;;5029791;28;20035;-59
2022/06/11 03:36:52;;;;;;;0.00;0.00;;;;;;;;;;5030948;28;20104;-59
2022/06/11 03:39:18;;;;;;;0.00;0.00;;;;;;;;;;5030492;28;20028;-58
2022/06/11 03:41:44;;;;;;;0.00;0.00;;;;;;;;;;5030798;28;20029;-58
2022/06/11 03:44:09;;;;;;;0.00;0.00;;;;;;;;;;5030634;28;20036;-58
2022/06/11 03:46:35;;;;;;;0.00;0.00;;;;;;;;;;5030045;28;20022;-59
2022/06/11 03:49:01;;;;;;;0.00;0.00;;;;;;;;;;5029793;28;20425;-58
2022/06/11 03:51:26;;;;;;;0.00;0.00;;;;;;;;;;5029657;28;20029;-58
2022/06/11 03:53:51;;;;;;;0.00;0.00;;;;;;;;;;5030668;28;20117;-58
2022/06/11 03:56:17;;;;;;;0.20;0.20;;;;;;;;;;5030323;28;20041;-59
2022/06/11 03:58:44;;;;;;;0.00;0.00;;;;;;;;;;5030515;28;20046;-58
2022/06/11 04:01:16;;;;;;;0.20;0.00;;;;;;;;;;5030728;28;20034;-58
2022/06/11 04:03:47;;;;;;;0.00;0.00;;;;;;;;;;5030142;28;20510;-58
2022/06/11 04:06:13;;;;;;;0.00;0.00;;;;;;;;;;5030633;28;20025;-59
2022/06/11 04:08:39;;;;;;;0.00;0.00;;;;;;;;;;5029898;28;20501;-58
2022/06/11 04:11:04;;;;;;;0.00;0.00;;;;;;;;;;5030702;28;20486;-58
2022/06/11 04:13:31;;;;;;;0.00;0.00;;;;;;;;;;5030136;28;20036;-59
2022/06/11 04:15:57;;;;;;;0.00;0.00;;;;;;;;;;5029115;28;20083;-57
2022/06/11 04:18:33;;;;;;;0.00;0.00;;;;;;;;;;5028118;28;20025;-57
2022/06/11 04:21:00;;;;;;;0.00;0.00;;;;;;;;;;5028642;28;20551;-59
2022/06/11 04:23:29;;;;;;;0.00;0.00;;;;;;;;;;5029798;28;20480;-59
2022/06/11 04:25:55;;;;;;;0.00;0.00;;;;;;;;;;5030770;28;20026;-60
2022/06/11 04:28:20;;;;;;;0.00;0.00;;;;;;;;;;5029588;28;20052;-58
2022/06/11 04:30:45;;;;;;;0.00;0.00;;;;;;;;;;5030375;28;20036;-59
2022/06/11 04:33:10;;;;;;;0.00;0.00;;;;;;;;;;5029952;28;20025;-58
2022/06/11 04:35:36;;;;;;;0.00;0.00;;;;;;;;;;5029533;28;20025;-59
2022/06/11 04:38:01;;;;;;;0.00;0.00;;;;;;;;;;5030186;28;20028;-58
2022/06/11 04:40:26;;;;;;;0.00;0.00;;;;;;;;;;5011906;28;20022;-59
2022/06/11 04:42:51;;;;;;;0.00;0.00;;;;;;;;;;5029912;28;20061;-59
2022/06/11 04:45:18;;;;;;;0.00;0.00;;;;;;;;;;5029691;28;20021;-59
2022/06/11 04:47:44;;;;;;;0.00;0.00;;;;;;;;;;5029316;28;20431;-58
2022/06/11 04:50:11;;;;;;;0.00;0.00;;;;;;;;;;5028522;28;20180;-59
2022/06/11 04:52:37;;;;;;;0.00;0.00;;;;;;;;;;5027204;28;20036;-59
2022/06/11 04:55:03;;;;;;;0.00;0.00;;;;;;;;;;5030629;28;20025;-59
2022/06/11 04:57:29;;;;;;;0.00;0.00;;;;;;;;;;5028814;28;20025;-59
2022/06/11 04:59:54;;;;;;;0.00;0.00;;;;;;;;;;5011470;28;20502;-58
2022/06/11 05:02:20;;;;;;;0.00;0.00;;;;;;;;;;5028421;28;20046;-59
2022/06/11 05:04:46;;;;;;;0.00;0.00;;;;;;;;;;5028876;28;20027;-58
2022/06/11 05:07:11;;;;;;;0.00;0.00;;;;;;;;;;5029539;28;20021;-58
2022/06/11 05:09:36;;;;;;;0.00;0.00;;;;;;;;;;5028728;28;20017;-58
2022/06/11 05:12:02;;;;;;;0.00;0.00;;;;;;;;;;5028933;28;20036;-58
2022/06/11 05:14:27;;;;;;;0.15;0.15;;;;;;;;;;5027181;28;20020;-58
2022/06/11 05:16:56;;;;;;;0.25;0.25;;;;;;;;;;5028959;28;20021;-58
2022/06/11 05:19:22;;;;;;;0.00;0.00;;;;;;;;;;5029199;28;20033;-58
2022/06/11 05:21:48;;;;;;;0.00;0.00;;;;;;;;;;5028815;28;20022;-58
2022/06/11 05:24:14;;;;;;;0.00;0.00;;;;;;;;;;5028744;28;20021;-59
2022/06/11 05:26:43;;;;;;;0.00;0.00;;;;;;;;;;5028644;28;20017;-59
2022/06/11 05:29:10;;;;;;;0.00;0.00;;;;;;;;;;5030558;28;20029;-59
2022/06/11 05:31:35;;;;;;;0.00;0.00;;;;;;;;;;5028154;28;20037;-59
2022/06/11 05:34:00;;;;;;;0.00;0.00;;;;;;;;;;5028049;28;20485;-58
2022/06/11 05:36:26;;;;;;;0.00;0.00;;;;;;;;;;5028959;28;20112;-58
2022/06/11 05:38:51;;;;;;;0.00;0.00;;;;;;;;;;5028449;28;20483;-58
2022/06/11 05:41:16;;;;;;;0.00;0.00;;;;;;;;;;5028934;28;20482;-58
2022/06/11 05:43:44;;;;;;;0.00;0.00;;;;;;;;;;5029304;28;20013;-59
2022/06/11 05:46:10;;;;;;;0.17;0.17;;;;;;;;;;5009704;28;20107;-60
2022/06/11 05:48:43;;;;;;;0.00;0.00;;;;;;;;;;5028177;28;20033;-59
2022/06/11 05:51:13;;;;;;;0.00;0.00;;;;;;;;;;5027901;28;20027;-58
2022/06/11 05:53:38;;;;;;;0.00;0.00;;;;;;;;;;5028387;28;20076;-57
2022/06/11 05:56:04;;;;;;;0.00;0.00;;;;;;;;;;5028530;28;20064;-58
2022/06/11 05:58:32;;;;;;;0.00;0.00;;;;;;;;;;5027325;28;20458;-58
2022/06/11 06:00:58;;;;;;;0.00;0.00;;;;;;;;;;5027110;28;20607;-59
2022/06/11 06:03:23;;;;;;;0.00;0.00;;;;;;;;;;5027891;28;20026;-59
2022/06/11 06:05:48;;;;;;;0.00;0.00;;;;;;;;;;5028316;28;20354;-59
2022/06/11 06:08:14;;;;;;;0.00;0.00;;;;;;;;;;5028269;28;20032;-59
2022/06/11 06:10:39;;;;;;;0.00;0.00;;;;;;;;;;5027555;28;20423;-59
2022/06/11 06:13:45;;;;;;;0.00;0.00;;;;;;;;;;5028173;28;20029;-58
2022/06/11 06:15:51;;;;;;;0.00;0.00;;;;;;;;;;5026650;28;20029;-59
2022/06/11 06:18:16;;;;;;;0.00;0.00;;;;;;;;;;5028549;28;20056;-60
2022/06/11 06:20:41;;;;;;;0.00;0.00;;;;;;;;;;5027467;28;20072;-60
2022/06/11 06:23:06;;;;;;;0.77;0.77;;;;;;;;;;5028219;28;20017;-59
2022/06/11 06:25:32;;;;;;;0.20;0.20;;;;;;;;;;5027081;28;20256;-59
2022/06/11 06:27:57;;;;;;;0.70;0.70;;;;;;;;;;5027695;28;20292;-60
2022/06/11 06:30:22;;;;;;;0.00;0.00;;;;;;;;;;5027750;28;20025;-60
2022/06/11 06:32:47;;;;;;;0.75;0.75;;;;;;;;;;5027876;28;20371;-59
2022/06/11 06:35:13;;;;;;;0.00;0.00;;;;;;;;;;5028034;28;20029;-60
2022/06/11 06:37:38;;;;;;;0.00;0.00;;;;;;;;;;5027350;28;20044;-59
2022/06/11 06:40:04;;;;;;;0.00;0.00;;;;;;;;;;5027613;28;20025;-58
2022/06/11 06:42:29;;;;;;;0.30;0.30;;;;;;;;;;5029972;28;20446;-59
2022/06/11 06:44:55;;;;;;;0.45;0.45;;;;;;;;;;5030544;28;20049;-58
2022/06/11 06:47:38;;;;;;;0.00;0.00;;;;;;;;;;5031091;28;21669;-57
2022/06/11 06:50:04;;;;;;;0.00;0.00;;;;;;;;;;5025718;28;20041;-58
2022/06/11 06:52:29;;;;;;;0.00;0.00;;;;;;;;;;5030974;28;20029;-59
2022/06/11 06:54:54;;;;;;;0.00;0.00;;;;;;;;;;5030640;28;20028;-60
2022/06/11 06:57:19;;;;;;;0.00;0.00;;;;;;;;;;5030601;28;20033;-60
2022/06/11 06:59:45;;;;;;;0.00;0.00;;;;;;;;;;5011861;28;20050;-59
2022/06/11 07:02:10;;;;;;;0.93;0.93;;;;;;;;;;4993819;28;20022;-59
2022/06/11 07:04:36;;;;;;;0.00;0.00;;;;;;;;;;5010714;28;20293;-59
2022/06/11 07:07:01;;;;;;;0.00;0.00;;;;;;;;;;5011335;28;20501;-58
2022/06/11 07:09:35;;;;;;;0.13;0.13;;;;;;;;;;5011062;28;20025;-58
2022/06/11 07:12:00;;;;;;;0.00;0.00;;;;;;;;;;5011165;28;20462;-59
2022/06/11 07:14:26;;;;;;;0.00;0.00;;;;;;;;;;5010356;28;20108;-58
2022/06/11 07:16:52;;;;;;;0.00;0.00;;;;;;;;;;4993763;28;20348;-58
2022/06/11 07:19:19;;;;;;;0.00;0.00;;;;;;;;;;5010909;28;20022;-58
2022/06/11 07:21:46;;;;;;;0.10;0.10;;;;;;;;;;5011060;28;20486;-57
2022/06/11 07:24:15;;;;;;;0.00;0.00;;;;;;;;;;5010967;28;20387;-59
2022/06/11 07:26:41;;;;;;;;;;;;;;;;;;5010552;28;20030;-58
2022/06/11 07:29:09;;;;;;;0.00;0.00;;;;;;;;;;4993078;28;20278;-59
2022/06/11 07:31:35;;;;;;;0.00;0.00;;;;;;;;;;5012408;28;20421;-58
2022/06/11 07:34:00;;;;;;;0.00;0.00;;;;;;;;;;5010423;28;20033;-59
2022/06/11 07:36:26;;;;;;;1.25;1.25;;;;;;;;;;5009683;28;20029;-59
2022/06/11 07:38:51;;;;;;;0.00;0.00;;;;;;;;;;5009679;28;20025;-59
2022/06/11 07:41:16;;;;;;;1.10;1.10;;;;;;;;;;5010496;28;20049;-59
2022/06/11 07:43:42;;;;;;;0.00;0.00;;;;;;;;;;5009038;28;20455;-60
2022/06/11 07:46:07;;;;;;;0.32;0.32;;;;;;;;;;5010795;28;20382;-60
2022/06/11 07:48:33;;;;;;;0.05;0.05;;;;;;;;;;5010150;28;20076;-60
2022/06/11 07:50:58;;;;;;;0.17;0.17;;;;;;;;;;5008127;28;20026;-59
2022/06/11 07:53:23;;;;;;;0.00;0.00;;;;;;;;;;5009726;28;20026;-59
2022/06/11 07:55:50;;;;;;;0.00;0.00;;;;;;;;;;5010034;28;20025;-59
2022/06/11 07:58:16;;;;;;;0.00;0.00;;;;;;;;;;5010004;28;20046;-60
2022/06/11 08:00:43;;;;;;;0.00;0.00;;;;;;;;;;5009961;28;20025;-59
2022/06/11 08:03:08;;;;;;;0.00;0.00;;;;;;;;;;5008568;28;20835;-59
2022/06/11 08:05:34;;;;;;;0.00;0.00;;;;;;;;;;5006922;28;20022;-60
2022/06/11 08:07:59;;;;;;;0.08;0.08;;;;;;;;;;5010390;28;20025;-59
2022/06/11 08:10:26;;;;;;;0.00;0.00;;;;;;;;;;5009389;28;20656;-59
2022/06/11 08:12:51;;;;;;;1.15;1.15;;;;;;;;;;5010026;28;20037;-59
2022/06/11 08:15:17;;;;;;;0.00;0.00;;;;;;;;;;5010327;28;20034;-58
2022/06/11 08:17:43;;;;;;;0.10;0.10;;;;;;;;;;5009887;28;20337;-58
2022/06/11 08:20:09;;;;;;;0.00;0.00;;;;;;;;;;5009562;28;20060;-60
2022/06/11 08:22:35;;;;;;;0.00;0.00;;;;;;;;;;5007744;28;20026;-59
2022/06/11 08:25:01;;;;;;;0.15;0.10;;;;;;;;;;5008984;28;20418;-59
2022/06/11 08:27:26;;;;;;;0.40;0.40;;;;;;;;;;5009778;28;20494;-60
2022/06/11 08:29:52;;;;;;;0.00;0.00;;;;;;;;;;5009628;28;20049;-58
2022/06/11 08:32:17;;;;;;;0.20;0.20;;;;;;;;;;5009470;28;20733;-59
2022/06/11 08:34:45;;;;;;;0.00;0.00;;;;;;;;;;5008989;28;20049;-59
2022/06/11 08:37:10;;;;;;;0.00;0.00;;;;;;;;;;5009646;28;20260;-58
2022/06/11 08:39:35;;;;;;;0.00;0.00;;;;;;;;;;5008724;28;20026;-59
2022/06/11 08:42:01;;;;;;;0.00;0.00;;;;;;;;;;5009549;28;20030;-59
2022/06/11 08:44:27;;;;;;;0.20;0.20;;;;;;;;;;5009181;28;20030;-59
2022/06/11 08:46:52;;;;;;;0.00;0.00;;;;;;;;;;5009524;28;20018;-59
2022/06/11 08:49:40;;;;;;;0.00;0.00;;;;;;;;;;5009361;28;20044;-59
2022/06/11 08:52:11;;;;;;;1.95;1.95;;;;;;;;;;5009030;28;20549;-58
2022/06/11 08:54:39;;;;;;;0.00;0.00;;;;;;;;;;5008195;28;20026;-59
2022/06/11 08:57:10;;;;;;;1.10;1.10;;;;;;;;;;5009137;28;20071;-59
2022/06/11 08:59:50;;;;;;;0.00;0.00;;;;;;;;;;5027440;28;20041;-58
2022/06/11 09:02:34;;;;;;;0.75;0.75;;;;;;;;;;5029126;28;20364;-59
2022/06/11 09:05:17;;;;;;;0.00;0.00;;;;;;;;;;5028102;28;20367;-59
2022/06/11 09:07:54;;;;;;;0.00;0.00;;;;;;;;;;5027937;28;20057;-59
2022/06/11 09:10:20;;;;;;;0.20;0.20;;;;;;;;;;5027832;28;20036;-59
2022/06/11 09:13:04;;;;;;;0.00;0.00;;;;;;;;;;5028798;28;20982;-58
2022/06/11 09:15:32;;;;;;;0.17;0.10;;;;;;;;;;5028536;28;20033;-59
2022/06/11 09:18:17;;;;;;;0.00;0.00;;;;;;;;;;5028511;28;20033;-59
2022/06/11 09:20:54;;;;;;;0.00;0.00;;;;;;;;;;5020434;28;20057;-60
2022/06/11 09:23:38;;;;;;;0.00;0.00;;;;;;;;;;5028463;28;20025;-59
2022/06/11 09:26:09;;;;;;;0.00;0.00;;;;;;;;;;5029399;28;20020;-57
2022/06/11 09:28:48;;;;;;;0.00;0.00;;;;;;;;;;5028348;28;20540;-59
2022/06/11 09:31:22;;;;;;;1.75;1.75;;;;;;;;;;5025122;28;20033;-59
2022/06/11 09:33:53;;;;;;;0.00;0.00;;;;;;;;;;5026734;28;20026;-59
2022/06/11 09:36:25;;;;;;;0.10;0.10;;;;;;;;;;5027765;28;20032;-59
2022/06/11 09:39:00;;;;;;;0.00;0.00;;;;;;;;;;5026889;28;20032;-59
2022/06/11 09:41:25;;;;;;;0.00;0.00;;;;;;;;;;5027032;28;20021;-58
2022/06/11 09:44:11;;;;;;;0.07;0.07;;;;;;;;;;5028226;28;20050;-59
2022/06/11 09:46:42;;;;;;;0.00;0.00;;;;;;;;;;5005147;28;20120;-58
2022/06/11 09:49:23;;;;;;;0.00;0.00;;;;;;;;;;5027298;28;20129;-58
2022/06/11 09:52:05;;;;;;;0.00;0.00;;;;;;;;;;5026715;28;20486;-58
2022/06/11 09:54:35;;;;;;;0.00;0.00;;;;;;;;;;5022461;28;20475;-58
2022/06/11 09:57:19;;;;;;;3.47;0.30;;;;;;;;;;5027087;28;20136;-59
2022/06/11 09:59:47;;;;;;;0.70;0.70;;;;;;;;;;5026810;28;20152;-59
2022/06/11 10:02:31;;;;;;;0.08;0.08;;;;;;;;;;5026324;28;20033;-58
2022/06/11 10:04:58;;;;;;;0.00;0.00;;;;;;;;;;5025967;28;20047;-58
2022/06/11 10:07:30;;;;;;;0.00;0.00;;;;;;;;;;5026477;28;20025;-59
2022/06/11 10:10:14;;;;;;;0.00;0.00;;;;;;;;;;5028070;28;20166;-58
2022/06/11 10:12:51;;;;;;;0.20;0.20;;;;;;;;;;5027340;28;20030;-59
2022/06/11 10:15:19;;;;;;;0.00;0.00;;;;;;;;;;5027855;28;20045;-59
2022/06/11 10:18:06;;;;;;;0.00;0.00;;;;;;;;;;5027491;28;20377;-59
2022/06/11 10:20:37;;;;;;;0.68;0.68;;;;;;;;;;5027344;28;20018;-59
2022/06/11 10:23:12;;;;;;;0.00;0.00;;;;;;;;;;5026913;28;20032;-58
2022/06/11 10:25:40;;;;;;;0.00;0.00;;;;;;;;;;5026562;28;20028;-60
2022/06/11 10:28:12;;;;;;;0.00;0.00;;;;;;;;;;5026872;28;20056;-58
2022/06/11 10:30:44;;;;;;;0.10;0.10;;;;;;;;;;5026985;28;20067;-59
2022/06/11 10:33:23;;;;;;;0.00;0.00;;;;;;;;;;5027760;28;20021;-58
2022/06/11 10:36:05;;;;;;;0.00;0.00;;;;;;;;;;5026868;28;20041;-58
2022/06/11 10:38:31;;;;;;;0.00;0.00;;;;;;;;;;5026135;28;20107;-58
2022/06/11 10:40:57;;;;;;;0.00;0.00;;;;;;;;;;5028158;28;20084;-59
2022/06/11 10:43:39;;;;;;;0.00;0.00;;;;;;;;;;5026207;28;20565;-59
2022/06/11 10:46:04;;;;;;;0.00;0.00;;;;;;;;;;5028116;28;20470;-60
2022/06/11 10:48:32;;;;;;;0.00;0.00;;;;;;;;;;5027496;28;20022;-60
2022/06/11 10:50:58;;;;;;;0.00;0.00;;;;;;;;;;5024398;28;20136;-58
2022/06/11 10:53:24;;;;;;;0.00;0.00;;;;;;;;;;5024576;28;20030;-58
2022/06/11 10:55:54;;;;;;;0.00;0.00;;;;;;;;;;5027279;28;20096;-59
2022/06/11 10:58:38;;;;;;;0.00;0.00;;;;;;;;;;5025729;28;20058;-59
2022/06/11 11:01:07;;;;;;;0.00;0.00;;;;;;;;;;5027555;28;20053;-58
2022/06/11 11:03:39;;;;;;;0.00;0.00;;;;;;;;;;5025774;28;20030;-59
2022/06/11 11:06:04;;;;;;;0.00;0.00;;;;;;;;;;5027507;28;20382;-58
2022/06/11 11:08:29;;;;;;;0.00;0.00;;;;;;;;;;5027534;28;20032;-59
2022/06/11 11:10:55;;;;;;;0.00;0.00;;;;;;;;;;5027381;28;20025;-59
2022/06/11 11:13:25;;;;;;;0.00;0.00;;;;;;;;;;5027326;28;20104;-58
2022/06/11 11:15:59;;;;;;;0.00;0.00;;;;;;;;;;5026240;28;20021;-59
2022/06/11 11:18:33;;;;;;;0.00;0.00;;;;;;;;;;5027319;28;20037;-59
2022/06/11 11:20:58;;;;;;;0.00;0.00;;;;;;;;;;5026215;28;20474;-60
2022/06/11 11:23:23;;;;;;;0.00;0.00;;;;;;;;;;5029241;28;20032;-59
2022/06/11 11:25:57;;;;;;;0.00;0.00;;;;;;;;;;5026276;28;20104;-58
2022/06/11 11:28:28;;;;;;;0.00;0.00;;;;;;;;;;5028328;28;20021;-59
2022/06/11 11:30:59;;;;;;;0.00;0.00;;;;;;;;;;5030784;28;20036;-59
2022/06/11 11:33:26;;;;;;;0.00;0.00;;;;;;;;;;5030416;28;20042;-59
2022/06/11 11:36:09;;;;;;;0.00;0.00;;;;;;;;;;5029082;28;20034;-59
2022/06/11 11:38:35;;;;;;;0.00;0.00;;;;;;;;;;5030572;28;20033;-60
2022/06/11 11:41:01;;;;;;;0.00;0.00;;;;;;;;;;5029952;28;20068;-59
2022/06/11 11:43:56;;;;;;;0.00;0.00;;;;;;;;;;5030315;28;20115;-59
2022/06/11 11:46:22;;;;;;;0.00;0.00;;;;;;;;;;5017601;28;20108;-59
2022/06/11 11:48:52;;;;;;;0.00;0.00;;;;;;;;;;5029490;28;20079;-59
2022/06/11 11:51:23;;;;;;;0.00;0.00;;;;;;;;;;5030215;28;20104;-57
2022/06/11 11:53:51;;;;;;;3.47;3.38;;;;;;;;;;5028991;28;20119;-59
2022/06/11 11:56:19;;;;;;;0.00;0.00;;;;;;;;;;5028368;28;20021;-58
2022/06/11 11:58:47;;;;;;;0.00;0.00;;;;;;;;;;5029007;28;20052;-57
2022/06/11 12:01:16;;;;;;;0.00;0.00;;;;;;;;;;5028440;28;20495;-57
2022/06/11 12:03:43;;;;;;;0.00;0.00;;;;;;;;;;5028516;28;20029;-58
2022/06/11 12:06:16;;;;;;;0.00;0.00;;;;;;;;;;5030709;28;20033;-59
2022/06/11 12:08:46;;;;;;;0.00;0.00;;;;;;;;;;5029642;28;20026;-59
2022/06/11 12:11:23;;;;;;;0.00;0.00;;;;;;;;;;5030651;28;20025;-59
2022/06/11 12:13:50;;;;;;;0.00;0.00;;;;;;;;;;5028649;28;20029;-58
2022/06/11 12:16:17;;;;;;;0.00;0.00;;;;;;;;;;5029965;28;20025;-58
2022/06/11 12:18:46;;;;;;;4.95;3.10;;;;;;;;;;5028066;28;20017;-59
2022/06/11 12:21:13;;;;;;;0.00;0.00;;;;;;;;;;5029668;28;20508;-59
2022/06/11 12:23:42;;;;;;;0.00;0.00;;;;;;;;;;5028581;28;20040;-59
2022/06/11 12:26:18;;;;;;;0.00;0.00;;;;;;;;;;5030151;28;20336;-58
2022/06/11 12:28:49;;;;;;;0.10;0.10;;;;;;;;;;5029963;28;20056;-58
2022/06/11 12:31:14;;;;;;;0.80;0.80;;;;;;;;;;5028570;28;20167;-60
2022/06/11 12:33:43;;;;;;;0.00;0.00;;;;;;;;;;5029656;28;20468;-59
2022/06/11 12:36:24;;;;;;;0.00;0.00;;;;;;;;;;5030558;28;20465;-59
2022/06/11 12:39:08;;;;;;;0.00;0.00;;;;;;;;;;5029049;28;20025;-60
2022/06/11 12:41:42;;;;;;;0.00;0.00;;;;;;;;;;5030159;28;20038;-58
2022/06/11 12:44:07;;;;;;;0.20;0.20;;;;;;;;;;5030105;28;20048;-58
2022/06/11 12:46:37;;;;;;;0.00;0.00;;;;;;;;;;5029749;28;20053;-58
2022/06/11 12:49:06;;;;;;;0.10;0.10;;;;;;;;;;5029032;28;20295;-58
2022/06/11 12:51:50;;;;;;;0.00;0.00;;;;;;;;;;5028365;28;20505;-59
2022/06/11 12:54:18;;;;;;;0.00;0.00;;;;;;;;;;5028620;28;20031;-57
2022/06/11 12:56:46;;;;;;;0.00;0.00;;;;;;;;;;5028340;28;20045;-58
2022/06/11 12:59:23;;;;;;;0.00;0.00;;;;;;;;;;5027512;28;20041;-58
2022/06/11 13:01:54;;;;;;;0.00;0.00;;;;;;;;;;5028175;28;20025;-58
2022/06/11 13:04:28;;;;;;;0.00;0.00;;;;;;;;;;5025977;28;20033;-58
2022/06/11 13:06:59;;;;;;;0.00;0.00;;;;;;;;;;5027995;28;20108;-59
2022/06/11 13:09:27;;;;;;;0.00;0.00;;;;;;;;;;5028616;28;20037;-57
2022/06/11 13:11:52;;;;;;;0.00;0.00;;;;;;;;;;5027080;28;20136;-58
2022/06/11 13:14:27;;;;;;;0.00;0.00;;;;;;;;;;5028323;28;20454;-58
2022/06/11 13:17:07;;;;;;;0.00;0.00;;;;;;;;;;5028859;28;20342;-59
2022/06/11 13:19:59;;;;;;;0.00;0.00;;;;;;;;;;5029014;28;20493;-58
2022/06/11 13:22:30;;;;;;;0.00;0.00;;;;;;;;;;5010924;28;20048;-59
2022/06/11 13:25:16;;;;;;;0.00;0.00;;;;;;;;;;5025418;28;20029;-59
2022/06/11 13:27:56;;;;;;;0.00;0.00;;;;;;;;;;5016059;28;20040;-58
2022/06/11 13:30:36;;;;;;;0.00;0.00;;;;;;;;;;5028493;28;20086;-58
2022/06/11 13:33:21;;;;;;;1.60;1.50;;;;;;;;;;5027076;28;20120;-58
2022/06/11 13:35:47;;;;;;;0.00;0.00;;;;;;;;;;5005281;28;20410;-59
2022/06/11 13:38:19;;;;;;;0.00;0.00;;;;;;;;;;5029256;28;20025;-59
2022/06/11 13:40:44;;;;;;;0.00;0.00;;;;;;;;;;5028769;28;20018;-58
2022/06/11 13:43:32;;;;;;;0.00;0.00;;;;;;;;;;5028714;28;20632;-58
2022/06/11 13:46:01;;;;;;;1.15;1.15;;;;;;;;;;5022092;28;20056;-59
2022/06/11 13:48:31;;;;;;;0.10;0.10;;;;;;;;;;5027432;28;20486;-56
2022/06/11 13:51:29;;;;;;;0.00;0.00;;;;;;;;;;5028712;28;20029;-59
2022/06/11 13:56:51;;;;;;;0.00;0.00;;;;;;;;;;5025344;28;20402;-58
2022/06/11 13:59:26;;;;;;;0.45;0.45;;;;;;;;;;5028247;28;20041;-58
2022/06/11 14:02:00;;;;;;;0.00;0.00;;;;;;;;;;5028135;28;20031;-57
2022/06/11 14:04:25;;;;;;;1.02;0.22;;;;;;;;;;5027264;28;20017;-59
2022/06/11 14:06:53;;;;;;;0.00;0.00;;;;;;;;;;5028314;28;20561;-57
2022/06/11 14:12:03;;;;;;;0.00;0.00;;;;;;;;;;5028494;28;20040;-59
2022/06/11 14:14:31;;;;;;;0.00;0.00;;;;;;;;;;5028531;28;20021;-56
2022/06/11 14:16:56;;;;;;;0.00;0.00;;;;;;;;;;5028153;28;20026;-59
2022/06/11 14:19:22;;;;;;;0.00;0.00;;;;;;;;;;5028013;28;20382;-58
2022/06/11 14:21:49;;;;;;;0.00;0.00;;;;;;;;;;5026475;28;20014;-57
2022/06/11 14:24:33;;;;;;;0.25;0.25;;;;;;;;;;5027831;28;20036;-58
2022/06/11 14:26:58;;;;;;;0.00;0.00;;;;;;;;;;5027491;28;20087;-59
2022/06/11 14:29:31;;;;;;;1.33;1.23;;;;;;;;;;5027829;28;20429;-58
2022/06/11 14:31:56;;;;;;;0.00;0.00;;;;;;;;;;5026938;28;20526;-58
2022/06/11 14:34:24;;;;;;;0.00;0.00;;;;;;;;;;5028095;28;20060;-58
2022/06/11 14:37:15;;;;;;;0.03;0.03;;;;;;;;;;5027734;28;20382;-59
2022/06/11 14:39:41;;;;;;;0.00;0.00;;;;;;;;;;5027269;28;21692;-59
2022/06/11 14:42:27;;;;;;;0.00;0.00;;;;;;;;;;5026909;28;20022;-58
2022/06/11 14:45:11;;;;;;;0.00;0.00;;;;;;;;;;5022980;28;20057;-58
2022/06/11 14:47:51;;;;;;;0.00;0.00;;;;;;;;;;5025998;28;20033;-58
2022/06/11 14:50:43;;;;;;;0.28;0.28;;;;;;;;;;5024820;28;20029;-58
2022/06/11 14:53:16;;;;;;;0.00;0.00;;;;;;;;;;5025175;28;20449;-57
2022/06/11 14:55:41;;;;;;;0.00;0.00;;;;;;;;;;5026205;28;20037;-58
2022/06/11 14:58:18;;;;;;;0.00;0.00;;;;;;;;;;5027740;28;20087;-58
2022/06/11 15:00:49;;;;;;;0.13;0.13;;;;;;;;;;5028819;28;20029;-58
2022/06/11 15:03:35;;;;;;;0.00;0.00;;;;;;;;;;5030007;28;20045;-57